createdAt,value
2023-04-01T00:05:51.122Z,52.39
2023-04-01T00:15:57.293Z,52.38
2023-04-01T00:26:02.750Z,52.91
2023-04-01T00:36:08.268Z,53.16
2023-04-01T00:46:13.483Z,53.17
2023-04-01T00:56:18.317Z,53.21
2023-04-01T01:06:23.666Z,53.08
2023-04-01T01:16:29.194Z,53.18
2023-04-01T01:26:34.595Z,53.26
2023-04-01T01:36:39.895Z,53.34
2023-04-01T01:46:45.184Z,53.35
2023-04-01T01:56:50.735Z,53.07
2023-04-01T02:06:56.136Z,53.17
2023-04-01T02:17:01.561Z,53.42
2023-04-01T02:27:06.915Z,53.38
2023-04-01T02:37:12.364Z,53.68
2023-04-01T02:47:17.701Z,53.54
2023-04-01T02:57:22.993Z,53.51
2023-04-01T03:07:28.491Z,53.56
2023-04-01T03:17:33.831Z,53.53
2023-04-01T03:27:39.037Z,53.36
2023-04-01T03:37:44.460Z,53.59
2023-04-01T03:47:49.554Z,53.39
2023-04-01T03:57:54.891Z,53.35
2023-04-01T04:08:00.485Z,53.51
2023-04-01T04:18:05.447Z,53.62
2023-04-01T04:28:10.648Z,53.46
2023-04-01T04:38:15.509Z,53.31
2023-04-01T04:48:20.865Z,53.25
2023-04-01T04:58:26.453Z,53.21
2023-04-01T05:08:31.497Z,53.71
2023-04-01T05:18:36.697Z,53.63
2023-04-01T05:28:41.874Z,53.33
2023-04-01T05:38:47.263Z,53.24
2023-04-01T05:48:52.532Z,53.35
2023-04-01T05:58:57.972Z,53.37
2023-04-01T06:09:03.547Z,53.63
2023-04-01T06:19:08.507Z,53.30
2023-04-01T06:29:13.252Z,53.40
2023-04-01T06:39:18.413Z,53.21
2023-04-01T06:49:23.612Z,53.60
2023-04-01T06:59:28.581Z,53.43
2023-04-01T07:09:34.145Z,53.53
2023-04-01T07:19:39.322Z,53.70
2023-04-01T07:29:44.552Z,53.48
2023-04-01T07:39:49.802Z,53.41
2023-04-01T07:49:54.977Z,53.16
2023-04-01T08:00:00.568Z,52.62
2023-04-01T08:10:05.991Z,52.78
2023-04-01T08:20:11.645Z,52.63
2023-04-01T08:30:17.249Z,52.94
2023-04-01T08:40:22.333Z,52.80
2023-04-01T08:50:27.853Z,52.57
2023-04-01T09:00:32.836Z,52.87
2023-04-01T09:10:38.074Z,52.84
2023-04-01T09:20:43.233Z,52.93
2023-04-01T09:30:48.495Z,52.88
2023-04-01T09:40:53.618Z,52.67
2023-04-01T09:50:59.001Z,52.99
2023-04-01T10:01:04.174Z,53.15
2023-04-01T10:11:09.304Z,52.99
2023-04-01T10:21:15.097Z,52.63
2023-04-01T10:31:20.112Z,52.60
2023-04-01T10:41:25.588Z,52.81
2023-04-01T10:51:30.748Z,52.96
2023-04-01T11:01:35.976Z,52.51
2023-04-01T11:11:41.653Z,52.60
2023-04-01T11:21:46.724Z,53.01
2023-04-01T11:31:52.101Z,52.91
2023-04-01T11:41:57.485Z,52.81
2023-04-01T11:52:02.736Z,52.93
2023-04-01T12:02:07.982Z,52.85
2023-04-01T12:12:13.292Z,52.63
2023-04-01T12:22:18.582Z,52.69
2023-04-01T12:32:24.171Z,52.88
2023-04-01T12:42:29.775Z,52.64
2023-04-01T12:52:35.021Z,52.40
2023-04-01T13:02:40.104Z,52.35
2023-04-01T13:12:45.197Z,52.40
2023-04-01T13:22:50.338Z,53.03
2023-04-01T13:32:55.714Z,52.56
2023-04-01T13:43:01.085Z,52.63
2023-04-01T13:53:06.482Z,53.14
2023-04-01T14:03:11.675Z,52.99
2023-04-01T14:13:17.147Z,52.90
2023-04-01T14:23:22.544Z,52.91
2023-04-01T14:33:27.961Z,52.51
2023-04-01T14:43:33.094Z,52.68
2023-04-01T14:53:38.347Z,52.67
2023-04-01T15:03:43.463Z,52.53
2023-04-01T15:13:49.326Z,52.38
2023-04-01T15:23:54.365Z,52.67
2023-04-01T15:33:59.520Z,52.56
2023-04-01T15:44:04.959Z,52.51
2023-04-01T15:55:29.873Z,52.16
2023-04-01T16:05:34.382Z,52.09
2023-04-01T16:15:40.158Z,51.98
2023-04-01T16:25:45.730Z,52.03
2023-04-01T16:35:50.765Z,51.94
2023-04-01T16:45:56.303Z,52.23
2023-04-01T16:56:01.803Z,52.06
2023-04-01T17:06:07.349Z,51.88
2023-04-01T17:16:12.493Z,51.94
2023-04-01T17:26:17.945Z,52.27
2023-04-01T17:36:22.743Z,51.78
2023-04-01T17:46:28.049Z,51.78
2023-04-01T17:56:33.761Z,52.12
2023-04-01T18:06:39.534Z,52.42
2023-04-01T18:16:44.874Z,52.52
2023-04-01T18:26:50.422Z,52.39
2023-04-01T18:36:55.643Z,52.66
2023-04-01T18:47:00.913Z,52.80
2023-04-01T18:57:06.235Z,52.38
2023-04-01T19:07:11.845Z,52.15
2023-04-01T19:17:17.337Z,52.14
2023-04-01T19:27:23.047Z,52.37
2023-04-01T19:37:29.039Z,52.43
2023-04-01T19:47:34.492Z,52.10
2023-04-01T19:57:40.044Z,52.08
2023-04-01T20:07:45.238Z,52.00
2023-04-01T20:17:50.404Z,52.34
2023-04-01T20:27:55.773Z,52.04
2023-04-01T20:38:01.156Z,52.37
2023-04-01T20:48:06.433Z,52.12
2023-04-01T20:58:11.780Z,52.00
2023-04-01T21:08:17.328Z,51.93
2023-04-01T21:18:22.782Z,52.13
2023-04-01T21:28:27.751Z,52.13
2023-04-01T21:38:33.115Z,52.08
2023-04-01T21:48:38.484Z,51.99
2023-04-01T21:58:44.031Z,51.89
2023-04-01T22:08:49.635Z,52.03
2023-04-01T22:18:54.854Z,52.00
2023-04-01T22:29:00.321Z,51.75
2023-04-01T22:39:05.402Z,51.83
2023-04-01T22:49:10.215Z,52.38
2023-04-01T23:00:34.984Z,52.15
2023-04-01T23:10:39.551Z,52.47
2023-04-01T23:20:44.888Z,52.31
2023-04-01T23:30:50.449Z,52.24
2023-04-01T23:40:56.051Z,52.14
2023-04-01T23:51:01.302Z,52.28
